Time;durP1;ratioP1;P1;durP2;ratioP2;P2;SDS_P1;SDS_P2;PMS_P1;PMS_P2;Temp;Humidity;BMP_temperature;BMP_pressure;BME280_temperature;BME280_humidity;BME280_pressure;Samples;Min_cycle;Max_cycle;Signal;HPM_P1;HPM_P2
2022/10/21 00:01:13;;;;;;;6.25;4.20;;;11.00;99.90;;;;;;5053057;28;20040;-64
2022/10/21 00:03:40;;;;;;;6.25;3.80;;;11.10;99.90;;;;;;5053790;28;20040;-64
2022/10/21 00:06:07;;;;;;;7.80;3.58;;;11.10;99.90;;;;;;5054506;28;20384;-65
2022/10/21 00:08:34;;;;;;;6.53;3.58;;;11.10;99.90;;;;;;5052857;28;20041;-64
2022/10/21 00:11:02;;;;;;;9.75;3.67;;;11.20;99.90;;;;;;5036539;28;20063;-64
2022/10/21 00:13:30;;;;;;;7.55;2.90;;;11.20;99.90;;;;;;5036321;28;20041;-64
2022/10/21 00:16:00;;;;;;;4.43;2.85;;;11.30;99.90;;;;;;5036536;28;20106;-64
2022/10/21 00:18:28;;;;;;;7.30;2.83;;;11.30;99.90;;;;;;5054428;28;20036;-64
2022/10/21 00:20:54;;;;;;;6.97;3.50;;;11.30;99.90;;;;;;5053565;28;20041;-64
2022/10/21 00:23:21;;;;;;;4.03;2.92;;;11.30;99.90;;;;;;5054493;28;20110;-64
2022/10/21 00:25:48;;;;;;;11.80;4.10;;;11.30;99.90;;;;;;5053733;28;20041;-64
2022/10/21 00:28:15;;;;;;;4.70;2.90;;;11.30;99.90;;;;;;5054661;28;20362;-64
2022/10/21 00:30:45;;;;;;;7.15;3.38;;;11.20;99.90;;;;;;5054350;28;20044;-64
2022/10/21 00:33:12;;;;;;;6.32;2.95;;;11.20;99.90;;;;;;5052665;28;20465;-64
2022/10/21 00:35:39;;;;;;;4.53;2.70;;;11.20;99.90;;;;;;5052801;28;20040;-64
2022/10/21 00:38:05;;;;;;;8.18;3.35;;;11.20;99.90;;;;;;5052042;28;20098;-64
2022/10/21 00:40:32;;;;;;;7.18;3.33;;;11.30;99.90;;;;;;5052501;28;20124;-64
2022/10/21 00:42:59;;;;;;;16.05;3.55;;;11.40;99.90;;;;;;5053534;28;20099;-64
2022/10/21 00:45:27;;;;;;;7.20;2.90;;;11.40;99.90;;;;;;5052173;28;20041;-64
2022/10/21 00:48:04;;;;;;;4.75;3.00;;;11.50;99.90;;;;;;5053547;28;20388;-64
2022/10/21 00:51:07;;;;;;;6.18;3.47;;;11.50;99.90;;;;;;5052313;28;20076;-64
2022/10/21 00:53:35;;;;;;;4.97;2.95;;;11.60;99.90;;;;;;5052733;28;20045;-64
2022/10/21 00:56:11;;;;;;;9.07;2.50;;;11.60;99.90;;;;;;5052112;28;20056;-64
2022/10/21 00:58:42;;;;;;;4.68;2.72;;;11.60;99.90;;;;;;5053575;28;20045;-64
2022/10/21 01:01:09;;;;;;;6.60;2.75;;;11.60;99.90;;;;;;5051784;28;20072;-64
2022/10/21 01:03:36;;;;;;;4.32;2.60;;;11.60;99.90;;;;;;5052391;28;20077;-64
2022/10/21 01:06:05;;;;;;;3.63;2.58;;;11.60;99.90;;;;;;5052001;28;20091;-64
2022/10/21 01:08:32;;;;;;;;;;;11.60;99.90;;;;;;5052374;28;20098;-64
2022/10/21 01:10:59;;;;;;;7.55;2.83;;;11.60;99.90;;;;;;5084808;28;19939;-64
2022/10/21 01:13:29;;;;;;;7.43;3.03;;;11.60;99.90;;;;;;5051516;28;20492;-64
2022/10/21 01:16:03;;;;;;;5.78;2.63;;;11.60;99.90;;;;;;5052672;28;20045;-64
2022/10/21 01:18:39;;;;;;;5.30;2.65;;;11.60;99.90;;;;;;5052342;28;20430;-64
2022/10/21 01:21:14;;;;;;;5.68;2.88;;;11.60;99.90;;;;;;5053588;28;20068;-64
2022/10/21 01:24:06;;;;;;;3.42;2.47;;;11.60;99.90;;;;;;5052481;28;20045;-64
2022/10/21 01:26:54;;;;;;;5.70;2.95;;;11.60;99.90;;;;;;5053916;28;20048;-64
2022/10/21 01:29:30;;;;;;;5.88;2.65;;;11.70;99.90;;;;;;5053769;28;20420;-64
2022/10/21 01:31:59;;;;;;;7.57;2.50;;;11.70;99.90;;;;;;5052545;28;20049;-64
2022/10/21 01:34:43;;;;;;;8.23;2.80;;;11.80;99.90;;;;;;5052202;28;20049;-64
2022/10/21 01:37:15;;;;;;;6.13;3.25;;;11.80;99.90;;;;;;5053735;28;20120;-64
2022/10/21 01:40:03;;;;;;;13.25;4.32;;;11.90;99.90;;;;;;5052313;28;20045;-64
2022/10/21 01:42:42;;;;;;;11.02;4.97;;;12.00;99.90;;;;;;5052521;28;20041;-64
2022/10/21 01:45:09;;;;;;;7.78;4.63;;;12.20;99.90;;;;;;5051225;28;20041;-64
2022/10/21 01:47:38;;;;;;;9.75;4.50;;;12.20;99.90;;;;;;5052563;28;20114;-64
2022/10/21 01:50:23;;;;;;;7.32;4.95;;;12.30;99.90;;;;;;5052167;28;20056;-64
2022/10/21 01:52:51;;;;;;;12.23;5.05;;;12.40;99.90;;;;;;5051607;28;20527;-64
2022/10/21 01:55:20;;;;;;;10.40;5.38;;;12.40;99.90;;;;;;5051359;28;20431;-64
2022/10/21 01:57:53;;;;;;;11.45;5.93;;;12.40;99.90;;;;;;5051050;28;20481;-64
2022/10/21 02:00:20;;;;;;;12.40;6.20;;;12.50;99.90;;;;;;5054296;28;20041;-64
2022/10/21 02:02:47;;;;;;;13.98;7.63;;;12.50;99.90;;;;;;5039182;28;20063;-64
2022/10/21 02:05:19;;;;;;;11.00;6.68;;;12.50;99.90;;;;;;5054987;28;20045;-64
2022/10/21 02:07:47;;;;;;;9.85;6.25;;;12.50;99.90;;;;;;5056795;28;20048;-64
2022/10/21 02:10:14;;;;;;;12.93;8.88;;;12.50;99.90;;;;;;5038232;28;20045;-64
2022/10/21 02:12:41;;;;;;;13.18;8.00;;;12.50;99.90;;;;;;5055787;28;20049;-64
2022/10/21 02:15:09;;;;;;;12.02;8.02;;;12.60;99.90;;;;;;5055111;28;20045;-64
2022/10/21 02:17:36;;;;;;;12.35;8.85;;;12.60;99.90;;;;;;5038597;28;20226;-64
2022/10/21 02:20:05;;;;;;;18.55;9.50;;;12.60;99.90;;;;;;5055087;28;20041;-64
2022/10/21 02:22:32;;;;;;;11.75;9.07;;;12.70;99.90;;;;;;5038786;28;20082;-64
2022/10/21 02:25:01;;;;;;;12.32;8.48;;;12.70;99.90;;;;;;5054613;28;20044;-64
2022/10/21 02:27:28;;;;;;;11.98;8.73;;;12.80;99.90;;;;;;5038458;28;20060;-64
2022/10/21 02:29:57;;;;;;;10.73;8.52;;;12.80;99.90;;;;;;5055231;28;20181;-64
2022/10/21 02:32:29;;;;;;;12.40;8.93;;;12.80;99.90;;;;;;5056028;28;20091;-64
2022/10/21 02:35:15;;;;;;;12.93;8.60;;;12.90;99.90;;;;;;5056368;28;20052;-64
2022/10/21 02:37:47;;;;;;;14.15;9.13;;;12.90;99.90;;;;;;5039917;28;20099;-64
2022/10/21 02:40:22;;;;;;;10.10;8.48;;;12.90;99.90;;;;;;5038046;28;20429;-64
2022/10/21 02:42:51;;;;;;;15.07;10.70;;;12.90;99.90;;;;;;5054857;28;20049;-64
2022/10/21 02:45:18;;;;;;;10.80;9.18;;;13.00;99.90;;;;;;5055090;28;20072;-64
2022/10/21 02:47:47;;;;;;;10.73;9.63;;;13.00;99.90;;;;;;5037494;28;20041;-64
2022/10/21 02:50:14;;;;;;;17.30;10.95;;;13.00;99.90;;;;;;5056318;28;20424;-64
2022/10/21 02:52:41;;;;;;;17.83;9.77;;;13.00;99.90;;;;;;5070684;28;20041;-64
2022/10/21 02:55:08;;;;;;;13.55;10.18;;;13.10;99.90;;;;;;5054984;28;20041;-64
2022/10/21 02:57:35;;;;;;;10.95;9.68;;;13.10;99.90;;;;;;5054506;28;20057;-64
2022/10/21 03:00:04;;;;;;;14.63;10.63;;;13.10;99.90;;;;;;5054374;28;20480;-64
2022/10/21 03:02:31;;;;;;;12.88;10.52;;;13.20;99.90;;;;;;5055446;28;20103;-64
2022/10/21 03:04:57;;;;;;;15.60;11.30;;;13.20;99.90;;;;;;5055423;28;20045;-64
2022/10/21 03:07:24;;;;;;;15.90;11.85;;;13.20;99.90;;;;;;5054973;28;20094;-64
2022/10/21 03:09:51;;;;;;;19.02;11.10;;;13.30;99.90;;;;;;5054128;28;20361;-64
2022/10/21 03:12:18;;;;;;;14.32;10.43;;;13.30;99.90;;;;;;5054498;28;20103;-64
2022/10/21 03:14:45;;;;;;;19.75;12.38;;;13.40;99.90;;;;;;5054910;28;20076;-64
2022/10/21 03:17:12;;;;;;;19.10;13.15;;;13.50;99.90;;;;;;5053827;28;20469;-64
2022/10/21 03:19:38;;;;;;;17.85;12.82;;;13.50;99.90;;;;;;5053496;28;20102;-64
2022/10/21 03:22:05;;;;;;;25.02;14.07;;;13.60;99.90;;;;;;5054975;28;20037;-64
2022/10/21 03:24:32;;;;;;;16.95;13.48;;;13.60;99.90;;;;;;5054617;28;20044;-64
2022/10/21 03:26:59;;;;;;;15.38;12.52;;;13.60;99.90;;;;;;5054567;28;20098;-64
2022/10/21 03:29:26;;;;;;;20.73;13.15;;;13.70;99.90;;;;;;5054589;28;20185;-64
2022/10/21 03:31:53;;;;;;;19.58;13.68;;;13.70;99.90;;;;;;5054447;28;20045;-64
2022/10/21 03:34:19;;;;;;;18.50;13.13;;;13.80;99.90;;;;;;5054170;28;20049;-64
2022/10/21 03:36:46;;;;;;;18.48;13.35;;;13.80;99.90;;;;;;5052954;28;20499;-64
2022/10/21 03:39:13;;;;;;;17.80;14.38;;;13.90;99.90;;;;;;5054591;28;20079;-64
2022/10/21 03:41:40;;;;;;;20.42;14.68;;;14.10;99.90;;;;;;5069692;28;20048;-64
2022/10/21 03:44:07;;;;;;;21.10;14.38;;;14.10;99.90;;;;;;5053263;28;20473;-64
2022/10/21 03:46:34;;;;;;;19.88;14.07;;;14.20;99.90;;;;;;5054982;28;20036;-64
2022/10/21 03:49:01;;;;;;;19.42;14.95;;;14.30;99.90;;;;;;5054468;28;20431;-64
2022/10/21 03:51:33;;;;;;;20.80;14.00;;;14.40;99.90;;;;;;5054097;28;20132;-64
2022/10/21 03:54:00;;;;;;;19.83;13.10;;;14.50;99.90;;;;;;5053070;28;20053;-64
2022/10/21 03:56:26;;;;;;;18.85;14.73;;;14.50;99.90;;;;;;5053333;28;20057;-64
2022/10/21 03:58:53;;;;;;;16.40;13.13;;;14.50;99.90;;;;;;5053878;28;20083;-64
2022/10/21 04:01:24;;;;;;;15.32;12.52;;;14.50;99.90;;;;;;5054693;28;20041;-64
2022/10/21 04:03:51;;;;;;;22.85;14.75;;;14.40;99.90;;;;;;5053371;28;20071;-64
2022/10/21 04:06:18;;;;;;;19.58;13.63;;;14.40;99.90;;;;;;5054149;28;20366;-64
2022/10/21 04:08:45;;;;;;;17.38;13.90;;;14.40;99.90;;;;;;5054291;28;20049;-64
2022/10/21 04:11:12;;;;;;;18.10;13.85;;;14.40;99.90;;;;;;5054285;28;20044;-64
2022/10/21 04:13:39;;;;;;;19.85;13.75;;;14.30;99.90;;;;;;5054340;28;20424;-64
2022/10/21 04:16:07;;;;;;;17.95;12.60;;;14.30;99.90;;;;;;5053938;28;20045;-64
2022/10/21 04:18:34;;;;;;;18.45;12.65;;;14.20;99.90;;;;;;5052614;28;20040;-64
2022/10/21 04:21:00;;;;;;;17.77;13.23;;;14.20;99.90;;;;;;5052852;28;20427;-64
2022/10/21 04:23:28;;;;;;;19.98;13.98;;;14.10;99.90;;;;;;5053310;28;20094;-64
2022/10/21 04:25:55;;;;;;;21.02;13.85;;;14.00;99.90;;;;;;5053686;28;20460;-64
2022/10/21 04:28:22;;;;;;;17.73;13.85;;;14.00;99.90;;;;;;5053273;28;20045;-64
2022/10/21 04:30:49;;;;;;;16.33;13.40;;;13.90;99.90;;;;;;5052230;28;20098;-64
2022/10/21 04:33:16;;;;;;;21.42;14.02;;;13.80;99.90;;;;;;5053156;28;20048;-64
2022/10/21 04:35:42;;;;;;;25.42;12.13;;;13.70;99.90;;;;;;5052821;28;20080;-64
2022/10/21 04:38:09;;;;;;;17.98;13.23;;;13.70;99.90;;;;;;5052284;28;20037;-64
2022/10/21 04:40:36;;;;;;;18.02;12.98;;;13.60;99.90;;;;;;5052350;28;20048;-64
2022/10/21 04:43:03;;;;;;;15.70;12.23;;;13.50;99.90;;;;;;5052438;28;20045;-64
2022/10/21 04:45:30;;;;;;;18.17;12.40;;;13.50;99.90;;;;;;5052349;28;20048;-64
2022/10/21 04:47:57;;;;;;;17.33;13.20;;;13.50;99.90;;;;;;5053958;28;20041;-64
2022/10/21 04:50:24;;;;;;;17.58;11.73;;;13.40;99.90;;;;;;5053509;28;20045;-64
2022/10/21 04:52:50;;;;;;;288.75;24.23;;;13.30;99.90;;;;;;5053755;28;20434;-64
2022/10/21 04:55:17;;;;;;;14.27;10.73;;;13.20;99.90;;;;;;5068706;28;20045;-64
2022/10/21 04:57:44;;;;;;;88.55;12.98;;;13.10;99.90;;;;;;5051623;28;20503;-64
2022/10/21 05:00:12;;;;;;;16.38;11.48;;;13.00;99.90;;;;;;5053276;28;20045;-64
2022/10/21 05:02:38;;;;;;;24.52;12.85;;;13.00;99.90;;;;;;5035145;28;20135;-64
2022/10/21 05:05:06;;;;;;;21.48;13.32;;;12.90;99.90;;;;;;5051894;28;20044;-64
2022/10/21 05:07:33;;;;;;;21.05;13.35;;;12.90;99.90;;;;;;5035206;28;20441;-64
2022/10/21 05:10:00;;;;;;;18.90;12.98;;;12.90;99.90;;;;;;5052609;28;20049;-64
2022/10/21 05:12:27;;;;;;;18.02;12.48;;;12.90;99.90;;;;;;5050739;28;20040;-64
2022/10/21 05:14:54;;;;;;;16.42;12.35;;;12.90;99.90;;;;;;5051026;28;20044;-64
2022/10/21 05:17:20;;;;;;;19.08;12.98;;;12.90;99.90;;;;;;5051245;28;20040;-64
2022/10/21 05:19:47;;;;;;;22.63;12.73;;;13.00;99.90;;;;;;5052641;28;20099;-64
2022/10/21 05:22:14;;;;;;;18.67;13.40;;;13.00;99.90;;;;;;5050826;28;20427;-64
2022/10/21 05:24:41;;;;;;;22.30;15.13;;;13.10;99.90;;;;;;5050477;28;20084;-65
2022/10/21 05:27:08;;;;;;;21.40;14.52;;;13.10;99.90;;;;;;5051969;28;20049;-64
2022/10/21 05:29:35;;;;;;;21.05;13.13;;;13.20;99.90;;;;;;5051794;28;20045;-64
2022/10/21 05:32:01;;;;;;;21.80;13.57;;;13.20;99.90;;;;;;5052792;28;20044;-64
2022/10/21 05:34:28;;;;;;;21.33;13.48;;;13.30;99.90;;;;;;5032676;28;20048;-64
2022/10/21 05:36:55;;;;;;;18.42;12.85;;;13.30;99.90;;;;;;5051952;28;20118;-64
2022/10/21 05:39:22;;;;;;;33.13;14.07;;;13.30;99.90;;;;;;5052180;28;20045;-64
2022/10/21 05:41:49;;;;;;;21.55;13.77;;;13.30;99.90;;;;;;5034200;28;20041;-64
2022/10/21 05:44:16;;;;;;;19.85;12.18;;;13.30;99.90;;;;;;5051055;28;20385;-64
2022/10/21 05:46:42;;;;;;;22.10;12.90;;;13.40;99.90;;;;;;5050577;28;20046;-64
2022/10/21 05:49:09;;;;;;;19.60;12.43;;;13.30;99.90;;;;;;5050220;28;20072;-64
2022/10/21 05:51:36;;;;;;;17.77;12.98;;;13.30;99.90;;;;;;5034214;28;20040;-64
2022/10/21 05:54:04;;;;;;;23.48;12.18;;;13.30;99.90;;;;;;5050816;28;20123;-64
2022/10/21 05:56:31;;;;;;;20.58;12.75;;;13.40;99.90;;;;;;5050590;28;20045;-64
2022/10/21 05:58:58;;;;;;;21.02;12.88;;;13.40;99.90;;;;;;5067092;28;20060;-64
2022/10/21 06:01:25;;;;;;;17.05;13.30;;;13.50;99.90;;;;;;5052134;28;20041;-64
2022/10/21 06:03:52;;;;;;;18.92;12.00;;;13.50;99.90;;;;;;5050031;28;20115;-64
2022/10/21 06:06:21;;;;;;;17.80;12.45;;;13.60;99.90;;;;;;5051536;28;20041;-64
2022/10/21 06:08:48;;;;;;;16.23;10.68;;;13.60;99.90;;;;;;5034451;28;20102;-64
2022/10/21 06:11:16;;;;;;;23.13;11.23;;;13.60;99.90;;;;;;5027953;28;181372;-64
2022/10/21 06:13:43;;;;;;;16.02;10.80;;;13.70;99.90;;;;;;5051868;28;20144;-64
2022/10/21 06:16:10;;;;;;;20.00;10.98;;;13.70;99.90;;;;;;5051005;28;20468;-64
2022/10/21 06:18:37;;;;;;;17.60;11.98;;;13.70;99.90;;;;;;5050590;28;20472;-64
2022/10/21 06:21:04;;;;;;;19.27;11.20;;;13.80;99.90;;;;;;5052253;28;20499;-64
2022/10/21 06:23:32;;;;;;;18.77;10.95;;;13.80;99.90;;;;;;5051549;28;20091;-64
2022/10/21 06:26:00;;;;;;;28.65;19.13;;;13.80;99.90;;;;;;5051851;28;20542;-63
2022/10/21 06:28:28;;;;;;;450.77;383.23;;;13.80;99.90;;;;;;5067830;28;20365;-62
2022/10/21 06:30:55;;;;;;;46.10;37.20;;;13.90;99.90;;;;;;5067889;28;20060;-64
2022/10/21 06:33:22;;;;;;;23.63;16.90;;;13.90;99.90;;;;;;5034861;28;20052;-63
2022/10/21 06:35:53;;;;;;;20.88;12.75;;;13.90;99.90;;;;;;5050779;28;20432;-63
2022/10/21 06:38:23;;;;;;;15.88;10.98;;;14.00;99.90;;;;;;5050738;28;20045;-66
2022/10/21 06:40:49;;;;;;;76.55;67.63;;;14.00;99.90;;;;;;5034243;28;20107;-65
2022/10/21 06:43:16;;;;;;;22.88;16.55;;;14.10;99.90;;;;;;5051852;28;20507;-64
2022/10/21 06:45:43;;;;;;;16.77;11.13;;;14.10;99.90;;;;;;5051811;28;20078;-64
2022/10/21 06:48:12;;;;;;;19.42;10.02;;;14.20;99.90;;;;;;5055975;28;20106;-64
2022/10/21 06:50:39;;;;;;;15.77;8.93;;;14.20;99.90;;;;;;5071433;28;20037;-64
2022/10/21 06:53:06;;;;;;;15.55;8.63;;;14.20;99.90;;;;;;5055231;28;20071;-65
2022/10/21 06:55:32;;;;;;;14.10;8.45;;;14.20;99.90;;;;;;5055382;28;20037;-64
2022/10/21 06:57:59;;;;;;;11.27;7.60;;;14.30;99.90;;;;;;5055051;28;20045;-64
2022/10/21 07:00:26;;;;;;;21.10;8.95;;;14.30;99.90;;;;;;5055425;28;20044;-63
2022/10/21 07:02:53;;;;;;;12.65;8.13;;;14.40;99.90;;;;;;5053924;28;20037;-63
2022/10/21 07:05:20;;;;;;;18.83;9.13;;;14.40;99.90;;;;;;5055004;28;20095;-64
2022/10/21 07:07:47;;;;;;;17.20;8.50;;;14.50;99.90;;;;;;5055076;28;20054;-64
2022/10/21 07:10:14;;;;;;;21.00;8.65;;;14.60;99.90;;;;;;5054732;28;20045;-64
2022/10/21 07:12:41;;;;;;;16.15;8.38;;;14.70;99.90;;;;;;5053702;28;20041;-64
2022/10/21 07:15:08;;;;;;;15.75;7.40;;;14.70;99.90;;;;;;5053977;28;20036;-64
2022/10/21 07:17:35;;;;;;;16.48;8.40;;;14.80;99.90;;;;;;5053736;28;20052;-64
2022/10/21 07:20:02;;;;;;;15.13;7.20;;;14.90;99.90;;;;;;5054495;28;20048;-64
2022/10/21 07:22:30;;;;;;;14.77;8.23;;;15.00;99.90;;;;;;5054698;28;20106;-64
2022/10/21 07:24:57;;;;;;;15.50;6.97;;;15.10;99.90;;;;;;5054590;28;20045;-64
2022/10/21 07:27:24;;;;;;;13.07;7.15;;;15.10;99.90;;;;;;5055491;28;20041;-63
2022/10/21 07:29:51;;;;;;;14.63;7.57;;;15.10;99.90;;;;;;5054497;28;20496;-63
2022/10/21 07:32:18;;;;;;;16.52;7.30;;;15.10;99.90;;;;;;5054417;28;20102;-64
2022/10/21 07:34:45;;;;;;;10.90;7.28;;;15.20;99.90;;;;;;5053285;28;20083;-64
2022/10/21 07:37:11;;;;;;;15.63;6.45;;;15.20;99.90;;;;;;5037061;28;20048;-66
2022/10/21 07:39:38;;;;;;;32.60;22.70;;;15.20;99.90;;;;;;5055124;28;20396;-62
2022/10/21 07:42:05;;;;;;;66.43;54.60;;;15.20;99.90;;;;;;5053608;28;20473;-63
2022/10/21 07:44:32;;;;;;;17.95;11.57;;;15.30;99.90;;;;;;5054709;28;20045;-63
2022/10/21 07:46:59;;;;;;;14.70;9.15;;;15.30;99.90;;;;;;5053179;28;20052;-62
2022/10/21 07:49:26;;;;;;;16.50;7.60;;;15.40;99.90;;;;;;5053522;28;20075;-63
2022/10/21 07:51:53;;;;;;;12.20;5.95;;;15.40;99.90;;;;;;5054200;28;20049;-62
2022/10/21 07:54:20;;;;;;;13.98;6.50;;;15.40;99.90;;;;;;5053846;28;20045;-64
2022/10/21 07:56:48;;;;;;;11.90;6.43;;;15.40;99.90;;;;;;5052668;28;20431;-63
2022/10/21 07:59:15;;;;;;;15.35;7.05;;;15.40;99.90;;;;;;5054224;28;20136;-65
2022/10/21 08:01:46;;;;;;;10.68;5.68;;;15.40;99.90;;;;;;5053459;28;20114;-63
2022/10/21 08:04:19;;;;;;;14.38;7.20;;;15.50;99.90;;;;;;5053694;28;20075;-63
2022/10/21 08:06:46;;;;;;;13.95;6.55;;;15.60;99.90;;;;;;5054710;28;20072;-63
2022/10/21 08:09:13;;;;;;;14.10;6.22;;;15.60;99.90;;;;;;5054005;28;20049;-63
2022/10/21 08:11:41;;;;;;;16.15;6.70;;;15.70;99.90;;;;;;5053752;28;20392;-64
2022/10/21 08:14:08;;;;;;;20.02;7.35;;;15.80;99.90;;;;;;5036557;28;20075;-64
2022/10/21 08:16:35;;;;;;;12.23;6.80;;;15.80;99.90;;;;;;5053823;28;20045;-65
2022/10/21 08:19:02;;;;;;;88.60;78.75;;;15.90;99.90;;;;;;5053918;28;20052;-64
2022/10/21 08:21:30;;;;;;;26.08;17.35;;;15.90;99.90;;;;;;5053562;28;20041;-62
2022/10/21 08:23:58;;;;;;;20.23;10.00;;;16.00;99.90;;;;;;5054605;28;20040;-62
2022/10/21 08:26:24;;;;;;;15.10;6.45;;;16.00;99.90;;;;;;5052264;28;20045;-63
2022/10/21 08:28:51;;;;;;;14.13;5.80;;;16.00;99.90;;;;;;5035810;28;20052;-62
2022/10/21 08:31:19;;;;;;;13.85;5.88;;;16.10;99.90;;;;;;5052938;28;20135;-62
2022/10/21 08:33:46;;;;;;;12.35;5.30;;;16.10;99.90;;;;;;5053750;28;20357;-62
2022/10/21 08:36:14;;;;;;;17.83;5.78;;;16.20;99.90;;;;;;5052779;28;20037;-63
2022/10/21 08:38:41;;;;;;;17.58;6.10;;;16.10;99.90;;;;;;5051972;28;20040;-63
2022/10/21 08:41:30;;;;;;;18.08;6.95;;;16.20;99.90;;;;;;5053393;28;20534;-63
2022/10/21 08:44:21;;;;;;;12.38;4.88;;;16.20;99.90;;;;;;5053497;28;20052;-61
2022/10/21 08:47:03;;;;;;;12.02;4.70;;;16.30;99.90;;;;;;5035479;28;20041;-62
2022/10/21 08:50:03;;;;;;;12.63;5.30;;;16.40;99.90;;;;;;5051851;28;20099;-62
2022/10/21 08:52:37;;;;;;;11.27;4.25;;;16.50;99.90;;;;;;5054071;28;20045;-62
2022/10/21 08:55:32;;;;;;;14.18;5.38;;;16.70;99.90;;;;;;5051804;28;20049;-64
2022/10/21 08:57:59;;;;;;;14.77;4.30;;;16.80;99.90;;;;;;5049743;28;20047;-63
2022/10/21 09:00:35;;;;;;;17.10;5.32;;;16.80;99.90;;;;;;5051960;28;20053;-62
2022/10/21 09:03:08;;;;;;;14.15;4.57;;;16.90;99.90;;;;;;5052594;28;20045;-61
2022/10/21 09:05:40;;;;;;;19.02;6.60;;;16.90;99.90;;;;;;5052723;28;20049;-62
2022/10/21 09:08:12;;;;;;;11.35;3.75;;;16.90;99.90;;;;;;5035501;28;20063;-62
2022/10/21 09:10:51;;;;;;;13.35;4.28;;;16.90;99.90;;;;;;5052672;28;20053;-62
2022/10/21 09:13:50;;;;;;;14.75;4.03;;;16.80;99.90;;;;;;5052401;28;20377;-62
2022/10/21 09:16:29;;;;;;;14.23;4.20;;;16.80;99.90;;;;;;5036014;28;20307;-65
2022/10/21 09:19:18;;;;;;;15.25;4.47;;;16.70;99.90;;;;;;5052226;28;20407;-64
2022/10/21 09:22:03;;;;;;;20.67;5.50;;;16.70;99.90;;;;;;5053564;28;20083;-62
2022/10/21 09:25:21;;;;;;;14.55;5.05;;;16.60;99.90;;;;;;5053498;28;20139;-62
2022/10/21 09:27:47;;;;;;;17.85;5.22;;;16.60;99.90;;;;;;5035549;28;20045;-62
2022/10/21 09:30:22;;;;;;;13.18;6.10;;;16.60;99.90;;;;;;5052180;28;20087;-63
2022/10/21 09:32:50;;;;;;;13.35;4.15;;;16.50;99.90;;;;;;5051182;28;20214;-63
2022/10/21 09:35:26;;;;;;;12.10;3.80;;;16.50;99.90;;;;;;5051652;28;20381;-64
2022/10/21 09:37:56;;;;;;;198.65;173.68;;;16.50;99.90;;;;;;5053362;28;20048;-63
2022/10/21 09:40:25;;;;;;;25.83;16.27;;;16.50;99.90;;;;;;5067814;28;20480;-62
2022/10/21 09:42:57;;;;;;;22.67;8.43;;;16.50;99.90;;;;;;5051273;28;20048;-63
2022/10/21 09:45:29;;;;;;;15.77;5.97;;;16.50;99.90;;;;;;5036063;28;20115;-63
2022/10/21 09:47:58;;;;;;;12.48;4.53;;;16.60;99.90;;;;;;5051236;28;20099;-63
2022/10/21 09:50:26;;;;;;;14.55;5.90;;;16.60;99.90;;;;;;5051301;28;20136;-63
2022/10/21 09:53:18;;;;;;;15.60;5.88;;;16.70;99.90;;;;;;5051446;28;20045;-63
2022/10/21 09:55:54;;;;;;;17.70;5.05;;;16.80;99.90;;;;;;5052249;28;20044;-64
2022/10/21 09:58:43;;;;;;;15.02;5.13;;;16.80;99.90;;;;;;5051021;28;20124;-65
2022/10/21 10:01:23;;;;;;;15.65;5.20;;;16.90;99.90;;;;;;5051149;28;20053;-64
2022/10/21 10:03:51;;;;;;;13.13;4.88;;;16.90;99.90;;;;;;5053128;28;20044;-63
2022/10/21 10:06:32;;;;;;;17.95;5.55;;;17.00;99.90;;;;;;5051189;28;20492;-64
2022/10/21 10:09:22;;;;;;;12.98;5.18;;;17.10;99.90;;;;;;5052070;28;20125;-64
2022/10/21 10:11:59;;;;;;;11.48;5.38;;;17.10;99.90;;;;;;5048882;28;20048;-63
2022/10/21 10:14:28;;;;;;;14.90;4.53;;;17.20;99.90;;;;;;5050846;28;20084;-64
2022/10/21 10:16:56;;;;;;;14.80;5.35;;;17.20;99.90;;;;;;5052905;28;20041;-66
2022/10/21 10:19:26;;;;;;;18.90;6.10;;;17.10;99.90;;;;;;5034671;28;20041;-62
2022/10/21 10:22:13;;;;;;;10.43;3.60;;;17.00;99.90;;;;;;5054092;28;20497;-62
2022/10/21 10:24:41;;;;;;;13.60;4.25;;;16.90;99.90;;;;;;5055988;28;20135;-64
2022/10/21 10:27:19;;;;;;;12.60;3.83;;;16.80;99.90;;;;;;5038184;28;20048;-63
2022/10/21 10:29:52;;;;;;;13.75;4.38;;;16.80;99.90;;;;;;5055122;28;20052;-63
2022/10/21 10:32:19;;;;;;;12.90;3.97;;;16.90;99.90;;;;;;5038029;28;20053;-63
2022/10/21 10:34:54;;;;;;;14.93;4.57;;;16.90;99.90;;;;;;5054704;28;20478;-64
2022/10/21 10:37:26;;;;;;;72.93;55.40;;;16.80;99.90;;;;;;5055447;28;20041;-62
2022/10/21 10:39:56;;;;;;;17.10;8.48;;;16.90;99.90;;;;;;5054700;28;20053;-62
2022/10/21 10:42:31;;;;;;;17.63;4.80;;;16.90;99.90;;;;;;5054392;28;20085;-62
2022/10/21 10:45:01;;;;;;;17.98;4.30;;;16.80;99.90;;;;;;5038805;28;20365;-62
2022/10/21 10:47:55;;;;;;;16.67;4.72;;;16.80;99.90;;;;;;5054791;28;20053;-62
2022/10/21 10:50:45;;;;;;;18.70;4.90;;;16.80;99.90;;;;;;5053935;28;20049;-63
2022/10/21 10:53:28;;;;;;;17.92;4.05;;;16.80;99.90;;;;;;5055276;28;20045;-63
2022/10/21 10:56:05;;;;;;;14.93;3.70;;;16.80;99.90;;;;;;5053994;28;20045;-65
2022/10/21 10:58:35;;;;;;;11.75;4.22;;;16.80;99.90;;;;;;5053953;28;20133;-64
2022/10/21 11:01:04;;;;;;;;;;;17.00;99.90;;;;;;5055511;28;20095;-64
2022/10/21 11:03:39;;;;;;;13.60;4.38;;;17.10;99.90;;;;;;5087658;28;19917;-63
2022/10/21 11:06:20;;;;;;;14.18;4.00;;;17.20;99.90;;;;;;5037639;28;20071;-64
2022/10/21 11:08:53;;;;;;;15.15;5.03;;;17.30;99.90;;;;;;5054083;28;20053;-64
2022/10/21 11:11:33;;;;;;;19.52;5.40;;;17.30;99.90;;;;;;5037506;28;20055;-65
2022/10/21 11:14:00;;;;;;;16.02;4.20;;;17.20;99.90;;;;;;5055187;28;20041;-64
2022/10/21 11:16:34;;;;;;;14.43;4.93;;;17.10;99.90;;;;;;5054086;28;20095;-67
2022/10/21 11:19:24;;;;;;;15.77;5.03;;;17.10;99.90;;;;;;5040538;28;20049;-65
2022/10/21 11:21:55;;;;;;;15.88;5.00;;;17.10;99.90;;;;;;5053690;28;20053;-66
2022/10/21 11:24:41;;;;;;;15.82;4.20;;;17.20;99.90;;;;;;5053565;28;20044;-65
2022/10/21 11:27:16;;;;;;;15.38;5.25;;;17.20;99.90;;;;;;5055073;28;20037;-65
2022/10/21 11:29:50;;;;;;;13.07;5.10;;;17.20;99.90;;;;;;5054849;28;20079;-65
2022/10/21 11:32:42;;;;;;;18.98;4.47;;;17.20;99.90;;;;;;5054854;28;20045;-65
2022/10/21 11:35:38;;;;;;;19.88;5.78;;;17.20;99.90;;;;;;5055872;28;20103;-65
2022/10/21 11:38:21;;;;;;;22.30;5.57;;;17.10;99.90;;;;;;5037601;28;20087;-66
2022/10/21 11:40:49;;;;;;;20.23;5.20;;;17.20;99.90;;;;;;5054256;28;20045;-64
2022/10/21 11:43:40;;;;;;;18.05;5.22;;;17.20;99.90;;;;;;5054609;28;20052;-64
2022/10/21 11:46:15;;;;;;;120.57;96.22;;;17.20;99.90;;;;;;5053561;28;20087;-66
2022/10/21 11:49:03;;;;;;;26.38;12.85;;;17.20;99.90;;;;;;5055553;28;20102;-65
2022/10/21 11:51:55;;;;;;;16.60;6.67;;;17.30;99.90;;;;;;5054303;28;20180;-66
2022/10/21 11:54:34;;;;;;;16.73;5.13;;;17.40;99.90;;;;;;5053586;28;20045;-66
2022/10/21 11:57:21;;;;;;;18.67;4.80;;;17.50;99.90;;;;;;5053693;28;20049;-66
2022/10/21 12:00:04;;;;;;;18.42;5.05;;;17.50;99.90;;;;;;5052949;28;20040;-66
2022/10/21 12:02:50;;;;;;;25.25;7.25;;;17.50;99.90;;;;;;5053784;28;20106;-66
2022/10/21 12:05:38;;;;;;;19.10;4.88;;;17.60;99.90;;;;;;5054282;28;20434;-66
2022/10/21 12:08:04;;;;;;;20.30;5.25;;;17.70;99.90;;;;;;5053477;28;20049;-66
2022/10/21 12:10:46;;;;;;;18.25;5.10;;;17.70;99.90;;;;;;5053868;28;20060;-65
2022/10/21 12:13:20;;;;;;;22.92;5.32;;;17.90;99.90;;;;;;5053403;28;20052;-65
2022/10/21 12:16:01;;;;;;;23.48;5.88;;;17.80;99.90;;;;;;5053839;28;20045;-66
2022/10/21 12:18:28;;;;;;;16.90;5.20;;;17.70;99.90;;;;;;5052510;28;20060;-66
2022/10/21 12:20:55;;;;;;;14.57;5.72;;;17.70;99.90;;;;;;5052489;28;20049;-65
2022/10/21 12:23:28;;;;;;;16.65;4.63;;;17.80;99.90;;;;;;5052268;28;20098;-65
2022/10/21 12:25:58;;;;;;;16.40;4.85;;;17.80;99.90;;;;;;5052361;28;20045;-64
2022/10/21 12:28:25;;;;;;;17.55;5.78;;;17.90;99.90;;;;;;5054567;28;20310;-64
2022/10/21 12:31:07;;;;;;;23.35;5.95;;;18.00;99.90;;;;;;5054103;28;20431;-65
2022/10/21 12:33:39;;;;;;;22.90;5.80;;;18.10;99.90;;;;;;5052872;28;20357;-64
2022/10/21 12:36:21;;;;;;;16.73;5.38;;;18.00;99.90;;;;;;5035710;28;20044;-65
2022/10/21 12:38:49;;;;;;;16.88;5.25;;;18.00;99.90;;;;;;5053117;28;20041;-65
2022/10/21 12:41:22;;;;;;;15.63;4.55;;;18.00;99.90;;;;;;5052081;28;20061;-65
2022/10/21 12:44:02;;;;;;;23.45;5.50;;;18.10;99.90;;;;;;5051788;28;20052;-65
2022/10/21 12:46:43;;;;;;;18.50;5.15;;;18.00;99.90;;;;;;5053789;28;20055;-65
2022/10/21 12:49:18;;;;;;;25.13;5.40;;;17.90;99.90;;;;;;5051992;28;20094;-65
2022/10/21 12:52:03;;;;;;;17.10;6.03;;;17.80;99.90;;;;;;5052341;28;20045;-65
2022/10/21 12:54:36;;;;;;;17.80;5.47;;;17.90;99.90;;;;;;5052102;28;20040;-64
2022/10/21 12:57:07;;;;;;;13.23;4.53;;;17.90;99.90;;;;;;5035955;28;20056;-64